Time;durP1;ratioP1;P1;durP2;ratioP2;P2;SDS_P1;SDS_P2;PMS_P1;PMS_P2;Temp;Humidity;BMP_temperature;BMP_pressure;BME280_temperature;BME280_humidity;BME280_pressure;Samples;Min_cycle;Max_cycle;Signal;HPM_P1;HPM_P2
2024/01/16 00:01:41;;;;;;;;;;;;;;;;;;5133966;28;19930;-43
2024/01/16 00:04:07;;;;;;;;;;;;;;;;;;5134112;28;20332;-42
2024/01/16 00:06:33;;;;;;;;;;;;;;;;;;5134074;28;20367;-45
2024/01/16 00:08:58;;;;;;;;;;;;;;;;;;5133878;28;19958;-44
2024/01/16 00:11:24;;;;;;;;;;;;;;;;;;5133690;28;19924;-43
2024/01/16 00:13:49;;;;;;;;;;;;;;;;;;5133943;28;19962;-43
2024/01/16 00:16:15;;;;;;;;;;;;;;;;;;5128619;28;19962;-42
2024/01/16 00:18:41;;;;;;;;;;;;;;;;;;5131884;28;19923;-46
2024/01/16 00:21:06;;;;;;;;;;;;;;;;;;5133479;28;20018;-43
2024/01/16 00:23:32;;;;;;;;;;;;;;;;;;5133611;28;19980;-43
2024/01/16 00:25:57;;;;;;;;;;;;;;;;;;5133634;28;19927;-43
2024/01/16 00:28:23;;;;;;;;;;;;;;;;;;5133408;28;19963;-43
2024/01/16 00:30:48;;;;;;;;;;;;;;;;;;5133520;28;20391;-44
2024/01/16 00:33:14;;;;;;;;;;;;;;;;;;5133622;28;20323;-44
2024/01/16 00:35:39;;;;;;;;;;;;;;;;;;5133523;27;20042;-41
2024/01/16 00:38:05;;;;;;;;;;;;;;;;;;5133592;28;20007;-44
2024/01/16 00:40:31;;;;;;;;;;;;;;;;;;5133177;28;19976;-41
2024/01/16 00:42:56;;;;;;;;;;;;;;;;;;5133353;27;20018;-44
2024/01/16 00:45:22;;;;;;;;;;;;;;;;;;5133237;28;19923;-44
2024/01/16 00:47:47;;;;;;;;;;;;;;;;;;5133413;28;19946;-46
2024/01/16 00:50:13;;;;;;;;;;;;;;;;;;5133142;28;19923;-44
2024/01/16 00:52:38;;;;;;;;;;;;;;;;;;5133166;28;20010;-41
2024/01/16 00:55:04;;;;;;;;;;;;;;;;;;5132900;28;20015;-41
2024/01/16 00:57:29;;;;;;;;;;;;;;;;;;5133048;28;20492;-42
2024/01/16 00:59:55;;;;;;;;;;;;;;;;;;5133283;28;19923;-43
2024/01/16 01:02:20;;;;;;;;;;;;;;;;;;5133167;28;19973;-42
2024/01/16 01:04:46;;;;;;;;;;;;;;;;;;5133194;28;19923;-46
2024/01/16 01:07:11;;;;;;;;;;;;;;;;;;5133334;28;19956;-42
2024/01/16 01:09:37;;;;;;;;;;;;;;;;;;5133154;28;19981;-42
2024/01/16 01:12:02;;;;;;;;;;;;;;;;;;5132779;28;20014;-42
2024/01/16 01:14:29;;;;;;;;;;;;;;;;;;5133248;28;19970;-40
2024/01/16 01:16:55;;;;;;;;;;;;;;;;;;5132224;28;20009;-42
2024/01/16 01:19:20;;;;;;;;;;;;;;;;;;5132967;28;19954;-42
2024/01/16 01:21:46;;;;;;;;;;;;;;;;;;5132779;28;19973;-41
2024/01/16 01:24:11;;;;;;;;;;;;;;;;;;5132765;28;19923;-45
2024/01/16 01:26:36;;;;;;;;;;;;;;;;;;5132822;28;20010;-42
2024/01/16 01:29:02;;;;;;;;;;;;;;;;;;5132892;28;19955;-43
2024/01/16 01:31:27;;;;;;;;;;;;;;;;;;5132674;28;20018;-42
2024/01/16 01:33:53;;;;;;;;;;;;;;;;;;5132680;28;20332;-45
2024/01/16 01:36:18;;;;;;;;;;;;;;;;;;5132808;27;19940;-42
2024/01/16 01:38:44;;;;;;;;;;;;;;;;;;5132706;28;19923;-45
2024/01/16 01:41:11;;;;;;;;;;;;;;;;;;5131961;28;19928;-42
2024/01/16 01:43:37;;;;;;;;;;;;;;;;;;5132890;28;19923;-42
2024/01/16 01:46:02;;;;;;;;;;;;;;;;;;5132293;28;20366;-41
2024/01/16 01:48:28;;;;;;;;;;;;;;;;;;5132726;28;19959;-46
2024/01/16 01:50:53;;;;;;;;;;;;;;;;;;5132559;28;19923;-44
2024/01/16 01:53:19;;;;;;;;;;;;;;;;;;5132372;27;20412;-46
2024/01/16 01:55:44;;;;;;;;;;;;;;;;;;5135531;28;20028;-44
2024/01/16 01:58:10;;;;;;;;;;;;;;;;;;5136017;28;19928;-46
2024/01/16 02:00:35;;;;;;;;;;;;;;;;;;5135775;28;19967;-46
2024/01/16 02:03:01;;;;;;;;;;;;;;;;;;5135787;28;19930;-45
2024/01/16 02:05:26;;;;;;;;;;;;;;;;;;5135922;28;19923;-42
2024/01/16 02:07:52;;;;;;;;;;;;;;;;;;5135801;28;19929;-41
2024/01/16 02:10:17;;;;;;;;;;;;;;;;;;5135595;28;19968;-42
2024/01/16 02:12:43;;;;;;;;;;;;;;;;;;5135790;28;20274;-44
2024/01/16 02:15:08;;;;;;;;;;;;;;;;;;5135709;28;20011;-44
2024/01/16 02:17:33;;;;;;;;;;;;;;;;;;5135547;28;19927;-46
2024/01/16 02:19:59;;;;;;;;;;;;;;;;;;5135824;28;20343;-45
2024/01/16 02:22:24;;;;;;;;;;;;;;;;;;5135306;28;19979;-43
2024/01/16 02:24:50;;;;;;;;;;;;;;;;;;5135492;28;19937;-44
2024/01/16 02:27:15;;;;;;;;;;;;;;;;;;5135438;28;19923;-43
2024/01/16 02:29:42;;;;;;;;;;;;;;;;;;5135381;28;19930;-45
2024/01/16 02:32:08;;;;;;;;;;;;;;;;;;5135082;28;20322;-41
2024/01/16 02:34:33;;;;;;;;;;;;;;;;;;5135446;28;20441;-43
2024/01/16 02:36:59;;;;;;;;;;;;;;;;;;5135108;27;20006;-44
2024/01/16 02:39:25;;;;;;;;;;;;;;;;;;5135478;28;20448;-42
2024/01/16 02:41:50;;;;;;;;;;;;;;;;;;5134547;28;20299;-42
2024/01/16 02:44:16;;;;;;;;;;;;;;;;;;5135179;28;19923;-45
2024/01/16 02:46:41;;;;;;;;;;;;;;;;;;5134966;28;20386;-44
2024/01/16 02:49:07;;;;;;;;;;;;;;;;;;5135331;28;20438;-42
2024/01/16 02:51:32;;;;;;;;;;;;;;;;;;5135083;28;20270;-43
2024/01/16 02:53:58;;;;;;;;;;;;;;;;;;5134940;28;19966;-43
2024/01/16 02:56:24;;;;;;;;;;;;;;;;;;5134940;28;19927;-43
2024/01/16 02:58:49;;;;;;;;;;;;;;;;;;5135002;28;19946;-42
2024/01/16 03:01:15;;;;;;;;;;;;;;;;;;5134735;28;19983;-43
2024/01/16 03:03:41;;;;;;;;;;;;;;;;;;5134897;28;19923;-41
2024/01/16 03:06:06;;;;;;;;;;;;;;;;;;5133438;27;19930;-43
2024/01/16 03:08:32;;;;;;;;;;;;;;;;;;5134833;28;19995;-42
2024/01/16 03:10:57;;;;;;;;;;;;;;;;;;5134632;28;19970;-43
2024/01/16 03:13:23;;;;;;;;;;;;;;;;;;5134637;28;19972;-42
2024/01/16 03:15:48;;;;;;;;;;;;;;;;;;5134523;28;20316;-43
2024/01/16 03:18:14;;;;;;;;;;;;;;;;;;5134801;28;19923;-46
2024/01/16 03:20:39;;;;;;;;;;;;;;;;;;5134725;28;20010;-43
2024/01/16 03:23:05;;;;;;;;;;;;;;;;;;5134770;28;20389;-41
2024/01/16 03:25:31;;;;;;;;;;;;;;;;;;5134402;28;20026;-42
2024/01/16 03:27:56;;;;;;;;;;;;;;;;;;5134421;28;19924;-46
2024/01/16 03:30:22;;;;;;;;;;;;;;;;;;5134509;28;20327;-42
2024/01/16 03:32:47;;;;;;;;;;;;;;;;;;5134297;28;19924;-42
2024/01/16 03:35:13;;;;;;;;;;;;;;;;;;5134315;27;19930;-46
2024/01/16 03:37:39;;;;;;;;;;;;;;;;;;5134399;28;19923;-42
2024/01/16 03:40:04;;;;;;;;;;;;;;;;;;5133905;28;19923;-42
2024/01/16 03:42:30;;;;;;;;;;;;;;;;;;5134335;28;19971;-44
2024/01/16 03:44:55;;;;;;;;;;;;;;;;;;5134313;28;19981;-44
2024/01/16 03:47:21;;;;;;;;;;;;;;;;;;5134003;28;20004;-41
2024/01/16 03:49:46;;;;;;;;;;;;;;;;;;5134277;28;19969;-41
2024/01/16 03:52:12;;;;;;;;;;;;;;;;;;5134313;28;19923;-45
2024/01/16 03:54:37;;;;;;;;;;;;;;;;;;5134211;28;19966;-43
2024/01/16 03:57:02;;;;;;;;;;;;;;;;;;5134176;28;19930;-45
2024/01/16 03:59:28;;;;;;;;;;;;;;;;;;5133751;28;19924;-44
2024/01/16 04:01:53;;;;;;;;;;;;;;;;;;5133923;28;20412;-41
2024/01/16 04:04:19;;;;;;;;;;;;;;;;;;5133940;28;19980;-43
2024/01/16 04:06:44;;;;;;;;;;;;;;;;;;5133757;28;19927;-44
2024/01/16 04:09:10;;;;;;;;;;;;;;;;;;5133635;28;19927;-44
2024/01/16 04:11:35;;;;;;;;;;;;;;;;;;5133541;28;20447;-41
2024/01/16 04:14:01;;;;;;;;;;;;;;;;;;5133862;28;19946;-43
2024/01/16 04:16:26;;;;;;;;;;;;;;;;;;5133304;27;19928;-46
2024/01/16 04:18:52;;;;;;;;;;;;;;;;;;5133667;28;19976;-42
2024/01/16 04:21:17;;;;;;;;;;;;;;;;;;5133833;28;19924;-41
2024/01/16 04:23:45;;;;;;;;;;;;;;;;;;5133789;28;19927;-42
2024/01/16 04:26:11;;;;;;;;;;;;;;;;;;5133764;28;19978;-44
2024/01/16 04:28:37;;;;;;;;;;;;;;;;;;5133584;28;19962;-44
2024/01/16 04:31:03;;;;;;;;;;;;;;;;;;5133473;28;20371;-44
2024/01/16 04:33:28;;;;;;;;;;;;;;;;;;5133592;28;20002;-43
2024/01/16 04:35:54;;;;;;;;;;;;;;;;;;5133516;27;19924;-44
2024/01/16 04:38:19;;;;;;;;;;;;;;;;;;5133306;28;20014;-44
2024/01/16 04:40:45;;;;;;;;;;;;;;;;;;5133131;28;20429;-43
2024/01/16 04:43:10;;;;;;;;;;;;;;;;;;5133510;28;19972;-46
2024/01/16 04:45:36;;;;;;;;;;;;;;;;;;5133124;28;20019;-43
2024/01/16 04:48:01;;;;;;;;;;;;;;;;;;5133493;28;19930;-41
2024/01/16 04:50:31;;;;;;;;;;;;;;;;;;5133424;28;19974;-44
2024/01/16 04:52:57;;;;;;;;;;;;;;;;;;5133407;28;19971;-42
2024/01/16 04:55:22;;;;;;;;;;;;;;;;;;5133343;28;19923;-42
2024/01/16 04:57:48;;;;;;;;;;;;;;;;;;5133096;28;20014;-45
2024/01/16 05:00:13;;;;;;;;;;;;;;;;;;5133184;28;20755;-45
2024/01/16 05:02:39;;;;;;;;;;;;;;;;;;5133079;28;19924;-41
2024/01/16 05:05:04;;;;;;;;;;;;;;;;;;5132962;28;19923;-42
2024/01/16 05:07:30;;;;;;;;;;;;;;;;;;5133128;28;20564;-43
2024/01/16 05:09:55;;;;;;;;;;;;;;;;;;5132882;28;19958;-44
2024/01/16 05:12:22;;;;;;;;;;;;;;;;;;5133041;28;19927;-42
2024/01/16 05:14:47;;;;;;;;;;;;;;;;;;5133008;28;19923;-43
2024/01/16 05:17:13;;;;;;;;;;;;;;;;;;5132762;28;20370;-42
2024/01/16 05:19:38;;;;;;;;;;;;;;;;;;5133008;28;20064;-46
2024/01/16 05:22:04;;;;;;;;;;;;;;;;;;5132783;28;20264;-45
2024/01/16 05:24:29;;;;;;;;;;;;;;;;;;5132974;28;19981;-43
2024/01/16 05:26:55;;;;;;;;;;;;;;;;;;5126076;28;19931;-43
2024/01/16 05:29:20;;;;;;;;;;;;;;;;;;5122179;28;19984;-45
2024/01/16 05:31:46;;;;;;;;;;;;;;;;;;5125479;28;20430;-43
2024/01/16 05:34:11;;;;;;;;;;;;;;;;;;5121389;28;19973;-43
2024/01/16 05:36:37;;;;;;;;;;;;;;;;;;5121342;28;20567;-42
2024/01/16 05:39:02;;;;;;;;;;;;;;;;;;5129689;28;19930;-42
2024/01/16 05:41:30;;;;;;;;;;;;;;;;;;5064371;27;1682465;-45
2024/01/16 05:43:58;;;;;;;;;;;;;;;;;;5126364;27;20010;-46
2024/01/16 05:46:24;;;;;;;;;;;;;;;;;;5133979;27;19923;-45
2024/01/16 05:48:50;;;;;;;;;;;;;;;;;;5130660;27;19927;-42
2024/01/16 05:51:16;;;;;;;;;;;;;;;;;;5126136;27;20364;-41
2024/01/16 05:53:43;;;;;;;;;;;;;;;;;;5126024;27;19931;-41
2024/01/16 05:56:09;;;;;;;;;;;;;;;;;;5127488;27;20375;-41
2024/01/16 05:58:38;;;;;;;;;;;;;;;;;;5127295;27;20027;-43
2024/01/16 06:01:04;;;;;;;;;;;;;;;;;;5127499;27;19951;-42
2024/01/16 06:03:31;;;;;;;;;;;;;;;;;;5120424;27;19927;-42
2024/01/16 06:05:57;;;;;;;;;;;;;;;;;;5128359;27;19928;-40
2024/01/16 06:08:23;;;;;;;;;;;;;;;;;;5129958;27;19946;-42
2024/01/16 06:10:49;;;;;;;;;;;;;;;;;;5128862;27;19931;-43
2024/01/16 06:13:15;;;;;;;;;;;;;;;;;;5127357;27;19927;-42
2024/01/16 06:15:41;;;;;;;;;;;;;;;;;;5125621;27;19959;-42
2024/01/16 06:18:08;;;;;;;;;;;;;;;;;;5124404;27;19958;-43
2024/01/16 06:20:35;;;;;;;;;;;;;;;;;;5125621;27;19931;-44
2024/01/16 06:23:01;;;;;;;;;;;;;;;;;;5124044;27;20445;-41
2024/01/16 06:25:27;;;;;;;;;;;;;;;;;;5134022;27;20348;-49
2024/01/16 06:27:53;;;;;;;;;;;;;;;;;;5117944;27;20602;-44
2024/01/16 06:30:20;;;;;;;;;;;;;;;;;;5122115;27;19931;-43
2024/01/16 06:32:47;;;;;;;;;;;;;;;;;;5135949;27;19923;-46
2024/01/16 06:35:13;;;;;;;;;;;;;;;;;;5125626;27;19927;-42
2024/01/16 06:37:40;;;;;;;;;;;;;;;;;;5122480;27;19929;-43
2024/01/16 06:40:06;;;;;;;;;;;;;;;;;;5128568;27;20028;-41
2024/01/16 06:42:33;;;;;;;;;;;;;;;;;;5128014;27;19928;-42
2024/01/16 06:44:59;;;;;;;;;;;;;;;;;;5127051;27;19996;-43
2024/01/16 06:47:25;;;;;;;;;;;;;;;;;;5130849;27;19942;-44
2024/01/16 06:49:51;;;;;;;;;;;;;;;;;;5122473;27;19932;-41
2024/01/16 06:52:17;;;;;;;;;;;;;;;;;;5131336;27;19924;-42
2024/01/16 06:54:44;;;;;;;;;;;;;;;;;;5126454;27;20416;-45
2024/01/16 06:57:10;;;;;;;;;;;;;;;;;;5121910;27;19924;-41
2024/01/16 06:59:36;;;;;;;;;;;;;;;;;;5118843;27;19924;-43
2024/01/16 07:02:03;;;;;;;;;;;;;;;;;;5126456;27;19930;-43
2024/01/16 07:04:29;;;;;;;;;;;;;;;;;;5121801;27;19972;-41
2024/01/16 07:06:55;;;;;;;;;;;;;;;;;;5121766;27;19954;-41
2024/01/16 07:09:21;;;;;;;;;;;;;;;;;;5126064;27;19927;-41
2024/01/16 07:11:47;;;;;;;;;;;;;;;;;;5130702;27;19976;-44
2024/01/16 07:14:14;;;;;;;;;;;;;;;;;;5128063;27;20018;-40
2024/01/16 07:16:40;;;;;;;;;;;;;;;;;;5131169;27;19928;-42
2024/01/16 07:19:06;;;;;;;;;;;;;;;;;;5125946;27;20442;-43
2024/01/16 07:21:33;;;;;;;;;;;;;;;;;;5124093;27;19924;-44
2024/01/16 07:23:59;;;;;;;;;;;;;;;;;;5126507;27;19931;-44
2024/01/16 07:26:26;;;;;;;;;;;;;;;;;;5123467;27;19927;-45
2024/01/16 07:28:52;;;;;;;;;;;;;;;;;;5125176;27;19927;-43
2024/01/16 07:31:18;;;;;;;;;;;;;;;;;;5126360;27;19931;-46
2024/01/16 07:33:44;;;;;;;;;;;;;;;;;;5120901;27;19923;-46
2024/01/16 07:36:11;;;;;;;;;;;;;;;;;;5124689;27;19927;-46
2024/01/16 07:38:37;;;;;;;;;;;;;;;;;;5123822;27;19931;-44
2024/01/16 07:41:03;;;;;;;;;;;;;;;;;;5120035;27;19931;-44
2024/01/16 07:43:29;;;;;;;;;;;;;;;;;;5121808;27;19930;-43
2024/01/16 07:45:55;;;;;;;;;;;;;;;;;;5118409;27;19976;-44
2024/01/16 07:48:22;;;;;;;;;;;;;;;;;;5119221;27;19927;-45
2024/01/16 07:50:49;;;;;;;;;;;;;;;;;;5119776;27;19957;-44
2024/01/16 07:53:15;;;;;;;;;;;;;;;;;;5118125;27;19927;-45
2024/01/16 07:55:41;;;;;;;;;;;;;;;;;;5117045;27;20434;-43
2024/01/16 07:58:07;;;;;;;;;;;;;;;;;;5116775;27;19931;-43
2024/01/16 08:00:34;;;;;;;;;;;;;;;;;;5122160;27;20455;-42
2024/01/16 08:03:00;;;;;;;;;;;;;;;;;;5117573;27;19984;-44
2024/01/16 08:05:27;;;;;;;;;;;;;;;;;;5117624;27;19931;-45
2024/01/16 08:07:53;;;;;;;;;;;;;;;;;;5123386;27;19969;-46
2024/01/16 08:10:20;;;;;;;;;;;;;;;;;;5115919;27;19931;-42
2024/01/16 08:12:46;;;;;;;;;;;;;;;;;;5117779;27;19924;-45
2024/01/16 08:15:12;;;;;;;;;;;;;;;;;;5118343;27;20018;-42
2024/01/16 08:17:39;;;;;;;;;;;;;;;;;;5123693;27;20213;-48
2024/01/16 08:20:05;;;;;;;;;;;;;;;;;;5120484;27;19927;-45
2024/01/16 08:22:31;;;;;;;;;;;;;;;;;;5122212;27;19970;-45
2024/01/16 08:24:57;;;;;;;;;;;;;;;;;;5122749;27;19927;-44
2024/01/16 08:27:23;;;;;;;;;;;;;;;;;;5128171;27;19923;-44
2024/01/16 08:29:50;;;;;;;;;;;;;;;;;;5120657;27;20023;-45
2024/01/16 08:32:16;;;;;;;;;;;;;;;;;;5122721;27;20026;-44
2024/01/16 08:34:43;;;;;;;;;;;;;;;;;;5119434;27;19931;-43
2024/01/16 08:37:09;;;;;;;;;;;;;;;;;;5125657;27;19927;-44
2024/01/16 08:39:36;;;;;;;;;;;;;;;;;;5120004;27;20000;-45
2024/01/16 08:42:03;;;;;;;;;;;;;;;;;;5123099;27;19927;-45
2024/01/16 08:44:29;;;;;;;;;;;;;;;;;;5127208;27;19930;-53
2024/01/16 08:46:55;;;;;;;;;;;;;;;;;;5125525;27;19962;-46
2024/01/16 08:49:21;;;;;;;;;;;;;;;;;;5120464;28;19924;-42
2024/01/16 08:51:47;;;;;;;;;;;;;;;;;;5123822;28;19931;-43
2024/01/16 08:54:14;;;;;;;;;;;;;;;;;;5117802;28;20384;-42
2024/01/16 08:56:40;;;;;;;;;;;;;;;;;;5121792;27;19951;-44
2024/01/16 08:59:06;;;;;;;;;;;;;;;;;;5120285;28;19931;-43
2024/01/16 09:01:32;;;;;;;;;;;;;;;;;;5118777;27;19928;-42
2024/01/16 09:03:58;;;;;;;;;;;;;;;;;;5122724;27;19963;-45
2024/01/16 09:06:25;;;;;;;;;;;;;;;;;;5125826;27;20307;-43
2024/01/16 09:08:51;;;;;;;;;;;;;;;;;;5123023;27;19941;-46
2024/01/16 09:11:17;;;;;;;;;;;;;;;;;;5127739;27;20305;-44
2024/01/16 09:13:44;;;;;;;;;;;;;;;;;;5124131;27;20363;-47
2024/01/16 09:16:10;;;;;;;;;;;;;;;;;;5125251;27;19931;-45
2024/01/16 09:18:36;;;;;;;;;;;;;;;;;;5127326;27;20011;-46
2024/01/16 09:21:03;;;;;;;;;;;;;;;;;;5129062;27;20019;-46
2024/01/16 09:23:29;;;;;;;;;;;;;;;;;;5132025;27;19931;-42
2024/01/16 09:25:56;;;;;;;;;;;;;;;;;;5134554;27;19934;-47
2024/01/16 09:28:22;;;;;;;;;;;;;;;;;;5135077;27;19931;-46
2024/01/16 09:30:48;;;;;;;;;;;;;;;;;;5130247;27;19972;-45
2024/01/16 09:33:16;;;;;;;;;;;;;;;;;;5126555;27;19983;-45
2024/01/16 09:35:42;;;;;;;;;;;;;;;;;;5128992;27;19924;-46
2024/01/16 09:38:09;;;;;;;;;;;;;;;;;;5119945;27;20014;-43
2024/01/16 09:40:35;;;;;;;;;;;;;;;;;;5131052;27;20300;-45
2024/01/16 09:43:01;;;;;;;;;;;;;;;;;;5132512;27;19924;-44
2024/01/16 09:45:27;;;;;;;;;;;;;;;;;;5126977;27;20436;-47
2024/01/16 09:47:54;;;;;;;;;;;;;;;;;;5132649;27;19928;-50
2024/01/16 09:50:20;;;;;;;;;;;;;;;;;;5125038;27;19927;-51
2024/01/16 09:52:47;;;;;;;;;;;;;;;;;;5124658;27;19923;-51
2024/01/16 09:55:13;;;;;;;;;;;;;;;;;;5125289;27;19993;-52
2024/01/16 09:57:40;;;;;;;;;;;;;;;;;;5127721;27;19962;-52
2024/01/16 10:00:06;;;;;;;;;;;;;;;;;;5125920;27;19968;-51
2024/01/16 10:02:32;;;;;;;;;;;;;;;;;;5124730;27;19932;-51
2024/01/16 10:04:58;;;;;;;;;;;;;;;;;;5125140;27;19938;-52
2024/01/16 10:07:27;;;;;;;;;;;;;;;;;;5124716;27;20437;-52
2024/01/16 10:09:53;;;;;;;;;;;;;;;;;;5123907;27;19971;-52
2024/01/16 10:12:19;;;;;;;;;;;;;;;;;;5127536;27;19931;-53
2024/01/16 10:14:46;;;;;;;;;;;;;;;;;;5057765;28;19925;-53
2024/01/16 10:17:15;;;;;;;;;;;;;;;;;;5063709;28;20027;-53
2024/01/16 10:19:42;;;;;;;;;;;;;;;;;;5061530;28;20348;-51
2024/01/16 10:22:13;;;;;;;;;;;;;;;;;;5063197;28;20652;-51
2024/01/16 10:24:40;;;;;;;;;;;;;;;;;;5068685;28;19953;-52
2024/01/16 10:27:06;;;;;;;;;;;;;;;;;;5065080;28;19932;-47
2024/01/16 10:29:32;;;;;;;;;;;;;;;;;;5064595;28;19925;-50
2024/01/16 10:32:08;;;;;;;;;;;;;;;;;;5071722;27;19931;-51
2024/01/16 10:34:34;;;;;;;;;;;;;;;;;;5122984;27;19931;-50
2024/01/16 10:37:01;;;;;;;;;;;;;;;;;;5121604;27;20280;-51
2024/01/16 10:39:27;;;;;;;;;;;;;;;;;;5119989;27;19927;-51
2024/01/16 10:42:03;;;;;;;;;;;;;;;;;;5119859;27;20389;-51
2024/01/16 10:44:29;;;;;;;;;;;;;;;;;;5128622;27;19972;-51
2024/01/16 10:46:55;;;;;;;;;;;;;;;;;;5130016;27;19938;-51
2024/01/16 10:49:21;;;;;;;;;;;;;;;;;;5131004;27;19963;-49
2024/01/16 10:51:49;;;;;;;;;;;;;;;;;;5123526;27;19947;-50
2024/01/16 10:54:15;;;;;;;;;;;;;;;;;;5129871;27;19932;-50
2024/01/16 10:56:41;;;;;;;;;;;;;;;;;;5122693;27;20405;-54
2024/01/16 10:59:08;;;;;;;;;;;;;;;;;;5129911;27;19929;-54
2024/01/16 11:01:34;;;;;;;;;;;;;;;;;;5130938;27;19984;-54
2024/01/16 11:04:00;;;;;;;;;;;;;;;;;;5124402;27;19970;-54
2024/01/16 11:06:27;;;;;;;;;;;;;;;;;;5123894;27;19939;-54
2024/01/16 11:08:53;;;;;;;;;;;;;;;;;;5128996;27;20022;-55
2024/01/16 11:11:19;;;;;;;;;;;;;;;;;;5127986;27;19930;-55
2024/01/16 11:13:46;;;;;;;;;;;;;;;;;;5134173;27;19950;-54
2024/01/16 11:16:12;;;;;;;;;;;;;;;;;;5127500;27;20371;-55
2024/01/16 11:18:38;;;;;;;;;;;;;;;;;;5122636;27;19927;-54
2024/01/16 11:21:04;;;;;;;;;;;;;;;;;;5128666;27;19950;-54
2024/01/16 11:23:34;;;;;;;;;;;;;;;;;;5124140;27;19930;-54
2024/01/16 11:26:01;;;;;;;;;;;;;;;;;;5131395;27;20005;-53
2024/01/16 11:28:27;;;;;;;;;;;;;;;;;;5126908;27;20367;-55
2024/01/16 11:30:53;;;;;;;;;;;;;;;;;;5128248;27;19934;-55
2024/01/16 11:33:19;;;;;;;;;;;;;;;;;;5130167;27;20089;-54
2024/01/16 11:35:46;;;;;;;;;;;;;;;;;;5119648;27;20195;-54
2024/01/16 11:38:12;;;;;;;;;;;;;;;;;;5127749;27;19923;-54
2024/01/16 11:40:38;;;;;;;;;;;;;;;;;;5123133;27;19923;-54
2024/01/16 11:43:05;;;;;;;;;;;;;;;;;;5119569;27;19950;-54
2024/01/16 11:45:31;;;;;;;;;;;;;;;;;;5127426;27;19980;-55
2024/01/16 11:47:57;;;;;;;;;;;;;;;;;;5130375;27;20363;-55
2024/01/16 11:50:23;;;;;;;;;;;;;;;;;;5127380;27;19974;-54
2024/01/16 11:52:49;;;;;;;;;;;;;;;;;;5123769;27;19924;-55
2024/01/16 11:55:16;;;;;;;;;;;;;;;;;;5126783;27;20074;-55
2024/01/16 11:57:42;;;;;;;;;;;;;;;;;;5125538;27;20027;-55
2024/01/16 12:00:15;;;;;;;;;;;;;;;;;;5125888;27;20347;-54
2024/01/16 12:02:41;;;;;;;;;;;;;;;;;;5121342;27;19923;-54
2024/01/16 12:05:07;;;;;;;;;;;;;;;;;;5132169;27;20355;-55
2024/01/16 12:07:34;;;;;;;;;;;;;;;;;;5129098;27;19984;-55
2024/01/16 12:10:01;;;;;;;;;;;;;;;;;;5127084;27;19959;-54
2024/01/16 12:12:27;;;;;;;;;;;;;;;;;;5120662;27;19927;-54
2024/01/16 12:14:53;;;;;;;;;;;;;;;;;;5122672;27;19934;-54
2024/01/16 12:17:20;;;;;;;;;;;;;;;;;;5121513;27;20363;-55
2024/01/16 12:19:46;;;;;;;;;;;;;;;;;;5123282;27;19976;-54
2024/01/16 12:22:12;;;;;;;;;;;;;;;;;;5123272;27;19955;-54
2024/01/16 12:24:39;;;;;;;;;;;;;;;;;;5116543;27;22040;-54
2024/01/16 12:27:05;;;;;;;;;;;;;;;;;;5111064;27;19971;-54
2024/01/16 12:29:31;;;;;;;;;;;;;;;;;;5112571;27;20383;-54
2024/01/16 12:31:57;;;;;;;;;;;;;;;;;;5111290;27;19932;-54
2024/01/16 12:34:23;;;;;;;;;;;;;;;;;;5105868;27;20948;-54
2024/01/16 12:36:49;;;;;;;;;;;;;;;;;;5104442;27;19927;-54
2024/01/16 12:39:19;;;;;;;;;;;;;;;;;;5122270;27;19924;-55
2024/01/16 12:41:45;;;;;;;;;;;;;;;;;;5119596;27;19984;-55
2024/01/16 12:44:12;;;;;;;;;;;;;;;;;;5125649;27;19923;-55
2024/01/16 12:46:41;;;;;;;;;;;;;;;;;;5124347;27;19935;-55
2024/01/16 12:49:07;;;;;;;;;;;;;;;;;;5124164;27;19980;-54
2024/01/16 12:51:34;;;;;;;;;;;;;;;;;;5126393;28;19924;-54
2024/01/16 12:54:00;;;;;;;;;;;;;;;;;;5119823;28;20440;-54
2024/01/16 12:56:26;;;;;;;;;;;;;;;;;;5119792;28;19966;-54
2024/01/16 12:59:02;;;;;;;;;;;;;;;;;;5120177;28;19980;-55
2024/01/16 13:01:31;;;;;;;;;;;;;;;;;;5116615;28;19928;-54
2024/01/16 13:04:04;;;;;;;;;;;;;;;;;;5128865;28;19935;-54
2024/01/16 13:06:30;;;;;;;;;;;;;;;;;;5121219;28;19927;-54
2024/01/16 13:08:56;;;;;;;;;;;;;;;;;;5122918;28;19934;-55
2024/01/16 13:11:22;;;;;;;;;;;;;;;;;;5127144;28;19961;-54
2024/01/16 13:14:00;;;;;;;;;;;;;;;;;;5128612;28;19932;-54
2024/01/16 13:16:26;;;;;;;;;;;;;;;;;;5124140;28;19934;-54
2024/01/16 13:18:54;;;;;;;;;;;;;;;;;;5127710;28;19986;-55
2024/01/16 13:21:21;;;;;;;;;;;;;;;;;;5126460;28;19972;-54
2024/01/16 13:23:47;;;;;;;;;;;;;;;;;;5125288;28;19924;-54
2024/01/16 13:26:13;;;;;;;;;;;;;;;;;;5125596;28;19923;-54
2024/01/16 13:28:39;;;;;;;;;;;;;;;;;;5122170;28;19931;-55
2024/01/16 13:31:05;;;;;;;;;;;;;;;;;;5119285;28;19983;-54
2024/01/16 13:33:31;;;;;;;;;;;;;;;;;;5125991;28;19924;-54
2024/01/16 13:35:58;;;;;;;;;;;;;;;;;;5126053;27;19923;-55
2024/01/16 13:38:24;;;;;;;;;;;;;;;;;;5124684;28;19928;-54
2024/01/16 13:40:50;;;;;;;;;;;;;;;;;;5123747;28;19924;-54
2024/01/16 13:43:16;;;;;;;;;;;;;;;;;;5119403;28;19931;-54
2024/01/16 13:45:43;;;;;;;;;;;;;;;;;;5129983;28;19931;-54
2024/01/16 13:48:09;;;;;;;;;;;;;;;;;;5124232;28;19986;-54
2024/01/16 13:50:35;;;;;;;;;;;;;;;;;;5129085;27;19930;-54
2024/01/16 13:53:02;;;;;;;;;;;;;;;;;;5126381;27;19924;-54
2024/01/16 13:55:28;;;;;;;;;;;;;;;;;;5127186;27;19997;-54
2024/01/16 13:57:54;;;;;;;;;;;;;;;;;;5129615;27;19984;-54
2024/01/16 14:00:20;;;;;;;;;;;;;;;;;;5133547;27;19923;-53
2024/01/16 14:02:46;;;;;;;;;;;;;;;;;;5122016;27;19980;-51
2024/01/16 14:05:15;;;;;;;;;;;;;;;;;;5134392;27;19923;-52
2024/01/16 14:07:41;;;;;;;;;;;;;;;;;;5132136;27;19928;-53
2024/01/16 14:10:09;;;;;;;;;;;;;;;;;;5130175;27;19976;-51
2024/01/16 14:12:35;;;;;;;;;;;;;;;;;;5120706;27;20031;-52
2024/01/16 14:15:04;;;;;;;;;;;;;;;;;;5134316;27;19968;-52
2024/01/16 14:17:30;;;;;;;;;;;;;;;;;;5122696;27;19971;-51
2024/01/16 14:19:56;;;;;;;;;;;;;;;;;;5132041;27;19932;-52
2024/01/16 14:22:22;;;;;;;;;;;;;;;;;;5132275;27;19939;-52
2024/01/16 14:24:51;;;;;;;;;;;;;;;;;;5134764;27;20316;-53
2024/01/16 14:27:17;;;;;;;;;;;;;;;;;;5125485;27;20015;-53
2024/01/16 14:29:43;;;;;;;;;;;;;;;;;;5130066;27;19944;-50
2024/01/16 14:32:09;;;;;;;;;;;;;;;;;;5118949;27;19927;-51
2024/01/16 14:34:36;;;;;;;;;;;;;;;;;;5131108;27;19928;-53
2024/01/16 14:37:02;;;;;;;;;;;;;;;;;;5127140;27;19923;-52
2024/01/16 14:39:30;;;;;;;;;;;;;;;;;;5135903;27;20385;-52
2024/01/16 14:41:58;;;;;;;;;;;;;;;;;;5134576;27;19927;-53
2024/01/16 14:44:24;;;;;;;;;;;;;;;;;;5124252;27;19946;-52
2024/01/16 14:46:51;;;;;;;;;;;;;;;;;;5134477;27;19930;-52
2024/01/16 14:49:18;;;;;;;;;;;;;;;;;;5124872;27;19967;-41
2024/01/16 14:51:45;;;;;;;;;;;;;;;;;;5128853;27;19966;-41
2024/01/16 14:54:11;;;;;;;;;;;;;;;;;;5120830;27;19924;-42
2024/01/16 14:56:37;;;;;;;;;;;;;;;;;;5135464;27;19949;-43
2024/01/16 14:59:03;;;;;;;;;;;;;;;;;;5127535;27;19923;-43
2024/01/16 15:01:30;;;;;;;;;;;;;;;;;;5121176;27;20025;-43
2024/01/16 15:03:57;;;;;;;;;;;;;;;;;;5130374;27;20442;-43
2024/01/16 15:06:25;;;;;;;;;;;;;;;;;;5130129;27;20350;-42
2024/01/16 15:08:51;;;;;;;;;;;;;;;;;;5120402;27;19934;-43
2024/01/16 15:11:18;;;;;;;;;;;;;;;;;;5135112;27;19924;-41
2024/01/16 15:13:44;;;;;;;;;;;;;;;;;;5129228;27;19969;-43
2024/01/16 15:16:11;;;;;;;;;;;;;;;;;;5126401;27;19927;-42
2024/01/16 15:18:37;;;;;;;;;;;;;;;;;;5118149;27;19931;-41
2024/01/16 15:21:03;;;;;;;;;;;;;;;;;;5128124;27;19927;-42
2024/01/16 15:23:30;;;;;;;;;;;;;;;;;;5128790;27;19931;-41
2024/01/16 15:26:02;;;;;;;;;;;;;;;;;;5112164;28;19924;-41
2024/01/16 15:28:29;;;;;;;;;;;;;;;;;;5112515;28;19924;-42
2024/01/16 15:30:55;;;;;;;;;;;;;;;;;;5114349;28;19928;-42
2024/01/16 15:33:21;;;;;;;;;;;;;;;;;;5114479;28;19923;-42
2024/01/16 15:35:47;;;;;;;;;;;;;;;;;;5114163;28;20299;-41
2024/01/16 15:38:14;;;;;;;;;;;;;;;;;;5114807;28;19923;-41
2024/01/16 15:40:40;;;;;;;;;;;;;;;;;;5114116;28;19928;-44
2024/01/16 15:43:06;;;;;;;;;;;;;;;;;;5114646;28;19924;-42
2024/01/16 15:45:32;;;;;;;;;;;;;;;;;;5128639;27;19960;-44
2024/01/16 15:47:59;;;;;;;;;;;;;;;;;;5133154;27;20355;-42
2024/01/16 15:50:28;;;;;;;;;;;;;;;;;;5135151;27;19927;-44
2024/01/16 15:52:54;;;;;;;;;;;;;;;;;;5134782;27;20266;-43
2024/01/16 15:55:20;;;;;;;;;;;;;;;;;;5134808;27;19924;-42
2024/01/16 15:57:47;;;;;;;;;;;;;;;;;;5134851;27;19960;-44
2024/01/16 16:00:15;;;;;;;;;;;;;;;;;;5134845;27;19927;-41
2024/01/16 16:02:46;;;;;;;;;;;;;;;;;;5134775;27;20327;-43
2024/01/16 16:05:12;;;;;;;;;;;;;;;;;;5134470;27;19924;-42
2024/01/16 16:07:38;;;;;;;;;;;;;;;;;;5134972;27;19931;-41
2024/01/16 16:10:04;;;;;;;;;;;;;;;;;;5134368;27;19927;-43
2024/01/16 16:12:30;;;;;;;;;;;;;;;;;;5134162;27;19924;-42
2024/01/16 16:14:57;;;;;;;;;;;;;;;;;;5134322;27;19967;-42
2024/01/16 16:17:23;;;;;;;;;;;;;;;;;;5134304;27;19929;-43
2024/01/16 16:19:49;;;;;;;;;;;;;;;;;;5134205;27;20013;-42
2024/01/16 16:22:15;;;;;;;;;;;;;;;;;;5134207;27;20320;-41
2024/01/16 16:24:41;;;;;;;;;;;;;;;;;;5134401;27;20280;-42
2024/01/16 16:27:07;;;;;;;;;;;;;;;;;;5134153;27;20380;-46
2024/01/16 16:29:34;;;;;;;;;;;;;;;;;;5134070;27;20317;-42
2024/01/16 16:32:00;;;;;;;;;;;;;;;;;;5134225;27;19927;-45
2024/01/16 16:34:26;;;;;;;;;;;;;;;;;;5134239;27;19971;-43
2024/01/16 16:36:52;;;;;;;;;;;;;;;;;;5134365;27;19962;-41
2024/01/16 16:39:22;;;;;;;;;;;;;;;;;;5134278;27;19923;-43